Lexington, Indiana
Current Conditions -  °F | °C
As of 7:53 PM on Sunday 28 Dec 2014 (Local Time) from KIMS Reporting Station
Overcast Overcast  
Wind Chill: 34°   Ceiling: 2000
Heat Index: 34°   Visibility: 10mi
Dew Point: 28°   Wind: 0mph
Humidity: 81%   Direction: NA
Pressure: 30.21"   Gusts: NA
Location:  38.65°N, 85.63°W
Report Text: KIMS 290053Z AUTO 00000KT 10SM OVC020 01/M02 A3021 RMK AO1
Loading
Personal Weather Stations






























Interactive Weather Map New forecast layout! Learn more

10-Day Weather Forecast

Advertisements
Track Severe Weather on mobile